createdAt,value
2023-05-21T03:48:24.915Z,12.65
2023-05-21T03:50:59.000Z,12.80
2023-05-21T03:53:26.558Z,10.07
2023-05-21T03:56:05.235Z,10.88
2023-05-21T04:04:04.137Z,9.57
2023-05-21T04:06:34.882Z,10.38
2023-05-21T04:09:07.487Z,11.43
2023-05-21T04:11:42.647Z,9.20
2023-05-21T04:14:19.429Z,9.25
2023-05-21T04:16:52.852Z,9.93
2023-05-21T04:19:24.802Z,10.88
2023-05-21T04:22:03.125Z,11.13
2023-05-21T04:24:38.683Z,10.80
2023-05-21T04:27:14.270Z,10.98
2023-05-21T04:32:37.548Z,10.90
2023-05-21T04:35:06.964Z,10.20
2023-05-21T04:37:42.372Z,11.95
2023-05-21T04:40:33.815Z,11.50
2023-05-21T04:43:05.219Z,10.43
2023-05-21T04:45:52.862Z,10.80
2023-05-21T04:48:21.036Z,9.27
2023-05-21T04:50:52.183Z,10.60
2023-05-21T04:53:21.026Z,10.85
2023-05-21T04:55:53.454Z,12.02
2023-05-21T04:58:29.522Z,12.00
2023-05-21T05:00:58.199Z,11.45
2023-05-21T05:03:46.642Z,12.85
2023-05-21T05:06:30.166Z,13.23
2023-05-21T05:09:09.796Z,14.00
2023-05-21T05:11:44.408Z,11.45
2023-05-21T05:14:14.530Z,11.52
2023-05-21T05:16:50.434Z,12.40
2023-05-21T05:19:23.484Z,12.60
2023-05-21T05:21:59.480Z,14.05
2023-05-21T05:24:36.449Z,13.95
2023-05-21T05:27:12.714Z,14.82
2023-05-21T05:29:49.040Z,14.60
2023-05-21T05:32:24.974Z,14.85
2023-05-21T05:34:56.033Z,16.08
2023-05-21T05:37:26.608Z,16.05
2023-05-21T05:39:58.825Z,18.90
2023-05-21T05:42:36.266Z,20.90
2023-05-21T05:45:24.970Z,19.38
2023-05-21T05:48:02.765Z,18.75
2023-05-21T05:50:55.849Z,19.05
2023-05-21T05:53:40.165Z,19.58
2023-05-21T05:56:13.765Z,19.27
2023-05-21T05:58:47.996Z,18.98
2023-05-21T06:01:23.122Z,19.60
2023-05-21T06:03:57.159Z,19.10
2023-05-21T06:09:12.628Z,17.70
2023-05-21T06:11:51.976Z,18.63
2023-05-21T06:14:53.868Z,18.48
2023-05-21T06:17:28.570Z,18.85
2023-05-21T06:20:10.158Z,20.15
2023-05-21T06:22:43.874Z,18.65
2023-05-21T06:25:24.206Z,17.38
2023-05-21T06:28:05.114Z,16.25
2023-05-21T06:31:00.288Z,16.08
2023-05-21T06:33:39.218Z,17.48
2023-05-21T06:36:37.540Z,18.02
2023-05-21T06:39:13.906Z,17.35
2023-05-21T06:41:45.024Z,16.83
2023-05-21T06:44:44.394Z,16.75
2023-05-21T06:47:28.487Z,16.95
2023-05-21T06:50:00.058Z,16.25
2023-05-21T06:52:44.405Z,16.05
2023-05-21T06:55:27.112Z,16.52
2023-05-21T06:58:22.077Z,18.10
2023-05-21T07:01:04.655Z,16.85
2023-05-21T07:03:47.989Z,17.70
2023-05-21T07:06:21.738Z,17.80
2023-05-21T07:08:55.131Z,17.35
2023-05-21T07:11:30.952Z,17.02
2023-05-21T07:14:11.369Z,18.42
2023-05-21T07:16:54.181Z,17.77
2023-05-21T07:19:34.796Z,17.98
2023-05-21T07:22:19.444Z,18.92
2023-05-21T07:25:02.488Z,19.17
2023-05-21T07:31:04.651Z,18.40
2023-05-21T07:37:15.180Z,19.98
2023-05-21T07:39:53.258Z,17.90
2023-05-21T08:01:03.222Z,19.10
2023-05-21T08:04:01.152Z,18.30
2023-05-21T08:06:52.698Z,17.98
2023-05-21T08:15:22.643Z,16.85
2023-05-21T08:18:06.307Z,16.65
2023-05-21T08:21:03.066Z,16.13
2023-05-21T08:23:35.984Z,15.23
2023-05-21T08:26:13.485Z,16.42
2023-05-21T08:29:04.703Z,16.58
2023-05-21T08:32:01.633Z,15.45
2023-05-21T08:34:47.445Z,16.05
2023-05-21T08:37:47.882Z,15.65
2023-05-21T08:40:37.032Z,15.20
2023-05-21T08:43:15.955Z,15.60
2023-05-21T08:46:06.185Z,15.02
2023-05-21T08:48:51.427Z,15.57
2023-05-21T08:51:54.104Z,15.70
2023-05-21T08:54:42.210Z,15.63
2023-05-21T09:00:19.806Z,15.35
2023-05-21T09:03:07.923Z,14.23
2023-05-21T09:05:45.227Z,14.90
2023-05-21T09:08:39.558Z,14.77
2023-05-21T09:11:53.876Z,14.93
2023-05-21T09:14:34.524Z,14.32
2023-05-21T09:17:32.478Z,14.32
2023-05-21T09:20:15.361Z,12.95
2023-05-21T09:23:20.223Z,14.25
2023-05-21T09:26:17.570Z,13.57
2023-05-21T09:28:54.246Z,13.88
2023-05-21T09:31:28.877Z,13.88
2023-05-21T09:34:01.416Z,13.18
2023-05-21T09:36:35.145Z,13.45
2023-05-21T09:39:12.541Z,12.73
2023-05-21T09:41:48.525Z,14.15
2023-05-21T09:44:18.405Z,12.82
2023-05-21T09:46:51.581Z,12.82
2023-05-21T09:49:33.042Z,12.18
2023-05-21T09:52:43.358Z,11.75
2023-05-21T09:58:05.229Z,12.38
2023-05-21T10:00:47.460Z,11.93
2023-05-21T10:03:17.443Z,12.70
2023-05-21T10:05:53.195Z,12.27
2023-05-21T10:08:49.539Z,11.23
2023-05-21T10:11:24.372Z,11.35
2023-05-21T10:14:06.381Z,12.20
2023-05-21T10:16:41.619Z,11.73
2023-05-21T10:19:56.112Z,11.20
2023-05-21T10:22:34.210Z,11.57
2023-05-21T10:25:51.897Z,10.98
2023-05-21T10:31:55.075Z,11.07
2023-05-21T10:35:07.977Z,12.32
2023-05-21T10:41:34.639Z,10.80
2023-05-21T10:53:44.528Z,10.52
2023-05-21T11:01:09.994Z,9.95
2023-05-21T11:15:39.473Z,10.13
2023-05-21T11:19:37.449Z,10.10
2023-05-21T11:24:27.951Z,10.27
2023-05-21T11:27:30.327Z,9.18
2023-05-21T11:33:27.347Z,9.73
2023-05-21T11:34:26.594Z,9.82
2023-05-21T11:37:27.256Z,9.35
2023-05-21T11:40:44.868Z,8.95
2023-05-21T11:43:50.042Z,9.05
2023-05-21T11:49:54.871Z,9.70
2023-05-21T11:52:53.579Z,10.10
2023-05-21T11:55:51.204Z,10.20
2023-05-21T11:58:32.998Z,10.00
2023-05-21T12:01:27.741Z,9.70
2023-05-21T12:04:22.512Z,8.57
2023-05-21T12:07:32.846Z,9.32
2023-05-21T12:10:21.442Z,10.00
2023-05-21T12:12:57.553Z,8.73
2023-05-21T12:15:28.030Z,9.80
2023-05-21T12:18:08.695Z,10.38
2023-05-21T12:20:39.788Z,9.50
2023-05-21T12:23:09.748Z,9.35
2023-05-21T12:25:59.504Z,9.98
2023-05-21T12:28:43.827Z,9.98
2023-05-21T12:31:30.252Z,10.15
2023-05-21T12:34:57.191Z,10.45
2023-05-21T12:37:35.473Z,9.95
2023-05-21T12:40:37.617Z,9.35
2023-05-21T12:43:05.695Z,9.23
2023-05-21T12:45:33.532Z,9.90
2023-05-21T12:48:05.983Z,8.90
2023-05-21T12:50:36.632Z,9.43
2023-05-21T12:53:05.110Z,8.90
2023-05-21T12:55:35.760Z,9.88
2023-05-21T12:58:09.190Z,10.23
2023-05-21T13:00:36.930Z,9.70
2023-05-21T13:03:11.475Z,10.55
2023-05-21T13:05:41.770Z,9.80
2023-05-21T13:08:14.128Z,9.43
2023-05-21T13:10:42.562Z,10.45
2023-05-21T13:13:10.470Z,10.95
2023-05-21T13:15:37.890Z,12.23
2023-05-21T13:18:07.266Z,11.13
2023-05-21T13:20:37.159Z,9.85
2023-05-21T13:23:06.700Z,10.60
2023-05-21T13:25:37.673Z,9.77
2023-05-21T13:28:10.158Z,10.45
2023-05-21T13:30:43.117Z,10.55
2023-05-21T13:33:33.000Z,10.07
2023-05-21T13:36:16.784Z,10.30
2023-05-21T13:38:49.834Z,9.27
2023-05-21T13:41:44.226Z,9.65
2023-05-21T13:44:34.209Z,10.57
2023-05-21T13:47:18.081Z,10.75
2023-05-21T13:49:52.715Z,10.73
2023-05-21T13:55:08.534Z,9.88
2023-05-21T13:57:42.232Z,9.82
2023-05-21T14:00:22.872Z,10.73
2023-05-21T14:02:59.053Z,9.43
2023-05-21T14:05:34.297Z,10.10
2023-05-21T14:08:09.552Z,9.90
2023-05-21T14:10:42.660Z,9.35
2023-05-21T14:13:23.740Z,9.38
2023-05-21T14:15:56.203Z,10.13
2023-05-21T14:18:33.236Z,9.85
2023-05-21T14:21:11.552Z,10.32
2023-05-21T14:23:52.026Z,9.60
2023-05-21T14:26:24.447Z,10.32
2023-05-21T14:28:54.615Z,10.55
2023-05-21T14:31:25.387Z,10.27
2023-05-21T14:33:55.454Z,10.57
2023-05-21T14:36:22.634Z,10.57
2023-05-21T14:38:50.006Z,10.13
2023-05-21T14:41:19.818Z,9.70
2023-05-21T14:43:54.513Z,10.10
2023-05-21T14:46:33.306Z,10.40
2023-05-21T14:49:08.477Z,9.63
2023-05-21T14:51:40.759Z,10.07
2023-05-21T14:54:10.580Z,9.05
2023-05-21T14:59:47.679Z,9.23
2023-05-21T15:02:17.505Z,9.85
2023-05-21T15:04:59.445Z,9.88
2023-05-21T15:07:36.953Z,9.60
2023-05-21T15:10:20.389Z,9.02
2023-05-21T15:13:04.654Z,9.52
2023-05-21T15:16:06.247Z,9.23
2023-05-21T15:18:51.567Z,9.77
2023-05-21T15:21:28.488Z,10.05
2023-05-21T15:27:56.474Z,9.40
2023-05-21T15:30:46.071Z,8.95
2023-05-21T15:33:17.704Z,8.82
2023-05-21T15:35:57.039Z,9.05
2023-05-21T15:42:54.583Z,8.60
2023-05-21T15:45:56.015Z,8.45
2023-05-21T15:48:30.296Z,9.07
2023-05-21T15:50:57.721Z,8.90
2023-05-21T15:54:11.230Z,7.65
2023-05-21T15:56:39.353Z,8.65
2023-05-21T15:59:53.978Z,8.68
2023-05-21T16:02:56.969Z,9.55
2023-05-21T16:05:29.097Z,8.93
2023-05-21T16:08:07.728Z,8.77
2023-05-21T16:10:41.186Z,8.80
2023-05-21T16:13:09.105Z,8.75
2023-05-21T16:15:47.122Z,8.50
2023-05-21T16:18:40.396Z,9.13
2023-05-21T16:21:23.503Z,9.13
2023-05-21T16:23:53.562Z,8.43
2023-05-21T16:26:27.178Z,8.05
2023-05-21T16:29:02.244Z,8.60
2023-05-21T16:31:57.706Z,9.50
2023-05-21T16:34:33.057Z,8.70
2023-05-21T16:37:44.953Z,8.00
2023-05-21T16:40:21.203Z,7.68
2023-05-21T16:43:21.566Z,8.10
2023-05-21T16:46:26.814Z,7.85
2023-05-21T16:49:09.639Z,7.20
2023-05-21T16:51:50.450Z,7.95
2023-05-21T16:54:21.318Z,7.85
2023-05-21T16:56:50.692Z,8.43
2023-05-21T16:59:35.979Z,8.38
2023-05-21T17:02:29.415Z,7.55
2023-05-21T17:05:10.600Z,7.35
2023-05-21T17:13:41.717Z,7.90
2023-05-21T17:16:43.930Z,8.07
2023-05-21T17:19:39.466Z,7.15
2023-05-21T17:22:15.536Z,7.25
2023-05-21T17:25:24.963Z,7.78
2023-05-21T17:28:23.409Z,7.82
2023-05-21T17:31:33.032Z,7.27
2023-05-21T17:34:12.171Z,6.13
2023-05-21T17:37:05.211Z,5.60
2023-05-21T17:40:04.147Z,5.40
2023-05-21T17:48:29.448Z,5.00
2023-05-21T17:51:11.404Z,5.50
2023-05-21T17:53:52.004Z,5.38
2023-05-21T17:56:21.983Z,5.00
2023-05-21T17:58:57.014Z,5.50
2023-05-21T18:01:24.402Z,5.65
2023-05-21T18:03:57.914Z,5.25
2023-05-21T18:06:31.239Z,5.65
2023-05-21T18:09:21.766Z,5.30
2023-05-21T18:11:59.899Z,5.30
2023-05-21T18:14:39.051Z,6.17
2023-05-21T18:17:14.559Z,5.80
2023-05-21T18:19:48.644Z,5.73
2023-05-21T18:22:41.603Z,5.57
2023-05-21T18:25:24.554Z,6.57
2023-05-21T18:27:54.440Z,6.03
2023-05-21T18:30:32.627Z,5.65
2023-05-21T18:33:02.025Z,5.70
2023-05-21T18:35:30.958Z,5.47
2023-05-21T18:37:58.141Z,6.18
2023-05-21T18:40:27.959Z,5.90
2023-05-21T18:43:51.040Z,6.00
2023-05-21T18:46:17.946Z,6.35
2023-05-21T18:48:48.479Z,6.20
2023-05-21T18:51:23.422Z,6.10
2023-05-21T18:53:50.299Z,6.32
2023-05-21T18:56:23.764Z,6.00
2023-05-21T18:58:50.640Z,6.20
2023-05-21T19:01:18.274Z,5.28
2023-05-21T19:03:45.167Z,5.88
2023-05-21T19:06:14.657Z,5.68
2023-05-21T19:08:41.978Z,5.95
2023-05-21T19:11:09.327Z,6.70
2023-05-21T19:13:36.299Z,6.28
2023-05-21T19:16:03.303Z,5.90
2023-05-21T19:18:31.630Z,5.85
2023-05-21T19:21:00.279Z,6.45
2023-05-21T19:23:27.249Z,6.88
2023-05-21T19:25:54.129Z,6.60
2023-05-21T19:28:21.125Z,6.70
2023-05-21T19:30:48.065Z,6.05
2023-05-21T19:33:14.933Z,6.65
2023-05-21T19:35:43.106Z,6.50
2023-05-21T19:38:10.800Z,6.20
2023-05-21T19:40:38.226Z,6.10
2023-05-21T19:43:05.178Z,6.32
2023-05-21T19:45:37.282Z,6.20
2023-05-21T19:48:04.397Z,6.82
2023-05-21T19:50:31.183Z,6.50
2023-05-21T19:52:57.874Z,7.18
2023-05-21T19:55:24.889Z,6.30
2023-05-21T19:57:51.966Z,6.72
2023-05-21T20:00:19.195Z,6.68
2023-05-21T20:02:46.449Z,6.93
2023-05-21T20:05:13.337Z,7.00
2023-05-21T20:07:41.215Z,6.75
2023-05-21T20:10:08.742Z,6.82
2023-05-21T20:12:35.740Z,7.00
2023-05-21T20:15:03.388Z,6.80
2023-05-21T20:17:30.523Z,6.57
2023-05-21T20:19:59.013Z,6.72
2023-05-21T20:22:25.853Z,6.57
2023-05-21T20:24:52.966Z,6.80
2023-05-21T20:27:20.009Z,7.45
2023-05-21T20:29:47.005Z,6.90
2023-05-21T20:32:13.733Z,7.70
2023-05-21T20:34:54.211Z,6.55
2023-05-21T20:37:29.054Z,7.32
2023-05-21T20:39:57.742Z,7.57
2023-05-21T20:42:33.937Z,7.32
2023-05-21T20:45:01.792Z,6.90
2023-05-21T20:47:31.470Z,7.47
2023-05-21T20:49:59.581Z,7.28
2023-05-21T20:52:26.929Z,7.18
2023-05-21T20:54:54.671Z,6.50
2023-05-21T20:57:25.990Z,7.25
2023-05-21T20:59:53.367Z,6.85
2023-05-21T21:02:20.718Z,7.20
2023-05-21T21:04:49.057Z,7.10
2023-05-21T21:07:18.079Z,6.97
2023-05-21T21:09:45.775Z,8.05
2023-05-21T21:12:24.657Z,7.47
2023-05-21T21:14:53.003Z,7.20
2023-05-21T21:17:19.840Z,6.80
2023-05-21T21:19:46.587Z,7.25
2023-05-21T21:22:14.375Z,7.20
2023-05-21T21:24:41.164Z,6.80
2023-05-21T21:27:07.910Z,7.00
2023-05-21T21:29:34.609Z,7.22
2023-05-21T21:32:01.745Z,6.82
2023-05-21T21:34:28.435Z,6.90
2023-05-21T21:36:55.311Z,7.20
2023-05-21T21:39:22.035Z,6.68
2023-05-21T21:41:48.825Z,7.30
2023-05-21T21:44:15.699Z,6.63
2023-05-21T21:46:42.441Z,6.45
2023-05-21T21:49:09.264Z,6.93
2023-05-21T21:51:36.851Z,6.93
2023-05-21T21:54:03.936Z,7.03
2023-05-21T21:56:30.678Z,7.50
2023-05-21T21:58:57.464Z,6.75
2023-05-21T22:01:24.310Z,6.93
2023-05-21T22:03:51.161Z,7.15
2023-05-21T22:06:18.004Z,7.07
2023-05-21T22:08:44.779Z,7.00
2023-05-21T22:11:11.587Z,7.03
